sensor_id;sensor_type;location;lat;lon;timestamp;temperature;humidity
41876;DHT22;27555;50.808;4.402;2022-09-03T00:01:58;21.50;93.10
41876;DHT22;27555;50.808;4.402;2022-09-03T00:10:01;21.50;93.00
41876;DHT22;27555;50.808;4.402;2022-09-03T00:12:32;21.50;92.90
41876;DHT22;27555;50.808;4.402;2022-09-03T00:15:08;21.50;92.80
41876;DHT22;27555;50.808;4.402;2022-09-03T00:17:44;21.50;92.60
41876;DHT22;27555;50.808;4.402;2022-09-03T00:20:14;21.60;92.20
41876;DHT22;27555;50.808;4.402;2022-09-03T00:22:47;21.60;92.60
41876;DHT22;27555;50.808;4.402;2022-09-03T00:25:20;21.60;93.00
41876;DHT22;27555;50.808;4.402;2022-09-03T00:27:52;21.50;93.00
41876;DHT22;27555;50.808;4.402;2022-09-03T00:30:19;21.50;93.20
41876;DHT22;27555;50.808;4.402;2022-09-03T00:33:02;21.50;93.20
41876;DHT22;27555;50.808;4.402;2022-09-03T00:35:44;21.60;93.00
41876;DHT22;27555;50.808;4.402;2022-09-03T00:38:12;21.60;92.40
41876;DHT22;27555;50.808;4.402;2022-09-03T00:43:29;21.50;90.50
41876;DHT22;27555;50.808;4.402;2022-09-03T00:46:22;21.50;90.10
41876;DHT22;27555;50.808;4.402;2022-09-03T00:51:56;21.40;87.50
41876;DHT22;27555;50.808;4.402;2022-09-03T00:54:51;21.50;87.10
41876;DHT22;27555;50.808;4.402;2022-09-03T01:00:05;21.40;86.80
41876;DHT22;27555;50.808;4.402;2022-09-03T01:11:21;21.50;87.30
41876;DHT22;27555;50.808;4.402;2022-09-03T01:14:02;21.50;87.50
41876;DHT22;27555;50.808;4.402;2022-09-03T01:16:53;21.50;87.50
41876;DHT22;27555;50.808;4.402;2022-09-03T01:19:45;21.50;88.00
41876;DHT22;27555;50.808;4.402;2022-09-03T01:25:37;21.60;87.90
41876;DHT22;27555;50.808;4.402;2022-09-03T01:30:42;21.50;88.40
41876;DHT22;27555;50.808;4.402;2022-09-03T01:38:49;21.50;88.50
41876;DHT22;27555;50.808;4.402;2022-09-03T01:53:17;21.60;88.80
41876;DHT22;27555;50.808;4.402;2022-09-03T01:58:48;21.60;88.90
41876;DHT22;27555;50.808;4.402;2022-09-03T02:01:25;21.60;88.80
41876;DHT22;27555;50.808;4.402;2022-09-03T02:03:53;21.60;90.00
41876;DHT22;27555;50.808;4.402;2022-09-03T02:06:24;21.60;89.90
41876;DHT22;27555;50.808;4.402;2022-09-03T02:08:50;21.60;89.90
41876;DHT22;27555;50.808;4.402;2022-09-03T02:11:15;21.60;90.00
41876;DHT22;27555;50.808;4.402;2022-09-03T02:13:44;21.50;90.00
41876;DHT22;27555;50.808;4.402;2022-09-03T02:16:15;21.50;90.00
41876;DHT22;27555;50.808;4.402;2022-09-03T02:18:56;21.50;90.30
41876;DHT22;27555;50.808;4.402;2022-09-03T02:21:26;21.50;90.10
41876;DHT22;27555;50.808;4.402;2022-09-03T02:23:52;21.50;90.10
41876;DHT22;27555;50.808;4.402;2022-09-03T02:26:23;21.50;90.10
41876;DHT22;27555;50.808;4.402;2022-09-03T02:28:50;21.50;90.20
41876;DHT22;27555;50.808;4.402;2022-09-03T02:31:16;21.50;90.30
41876;DHT22;27555;50.808;4.402;2022-09-03T02:33:45;21.50;90.50
41876;DHT22;27555;50.808;4.402;2022-09-03T02:36:13;21.60;90.50
41876;DHT22;27555;50.808;4.402;2022-09-03T02:38:44;21.50;90.50
41876;DHT22;27555;50.808;4.402;2022-09-03T02:41:10;21.50;90.60
41876;DHT22;27555;50.808;4.402;2022-09-03T02:43:48;21.50;90.70
41876;DHT22;27555;50.808;4.402;2022-09-03T02:46:23;21.50;90.80
41876;DHT22;27555;50.808;4.402;2022-09-03T02:48:52;21.50;91.00
41876;DHT22;27555;50.808;4.402;2022-09-03T02:51:18;21.50;91.20
41876;DHT22;27555;50.808;4.402;2022-09-03T02:53:44;21.50;91.20
41876;DHT22;27555;50.808;4.402;2022-09-03T02:56:10;21.50;91.40
41876;DHT22;27555;50.808;4.402;2022-09-03T02:58:36;21.50;91.70
41876;DHT22;27555;50.808;4.402;2022-09-03T03:01:02;21.50;91.80
41876;DHT22;27555;50.808;4.402;2022-09-03T03:03:28;21.40;92.10
41876;DHT22;27555;50.808;4.402;2022-09-03T03:05:56;21.40;92.30
41876;DHT22;27555;50.808;4.402;2022-09-03T03:08:25;21.30;92.40
41876;DHT22;27555;50.808;4.402;2022-09-03T03:10:52;21.40;92.50
41876;DHT22;27555;50.808;4.402;2022-09-03T03:13:21;21.40;92.60
41876;DHT22;27555;50.808;4.402;2022-09-03T03:15:47;21.30;92.70
41876;DHT22;27555;50.808;4.402;2022-09-03T03:18:13;21.30;92.90
41876;DHT22;27555;50.808;4.402;2022-09-03T03:20:40;21.30;93.00
41876;DHT22;27555;50.808;4.402;2022-09-03T03:23:07;21.30;93.10
41876;DHT22;27555;50.808;4.402;2022-09-03T03:25:36;21.30;93.20
41876;DHT22;27555;50.808;4.402;2022-09-03T03:28:02;21.30;93.30
41876;DHT22;27555;50.808;4.402;2022-09-03T03:30:30;21.30;93.20
41876;DHT22;27555;50.808;4.402;2022-09-03T03:32:56;21.30;93.30
41876;DHT22;27555;50.808;4.402;2022-09-03T03:35:22;21.30;93.50
41876;DHT22;27555;50.808;4.402;2022-09-03T03:37:48;21.30;93.90
41876;DHT22;27555;50.808;4.402;2022-09-03T03:40:14;21.20;94.20
41876;DHT22;27555;50.808;4.402;2022-09-03T03:42:40;21.30;94.20
41876;DHT22;27555;50.808;4.402;2022-09-03T03:45:06;21.30;94.20
41876;DHT22;27555;50.808;4.402;2022-09-03T03:47:34;21.20;94.50
41876;DHT22;27555;50.808;4.402;2022-09-03T03:50:00;21.20;95.20
41876;DHT22;27555;50.808;4.402;2022-09-03T03:52:26;21.10;96.10
41876;DHT22;27555;50.808;4.402;2022-09-03T03:54:52;21.00;97.10
41876;DHT22;27555;50.808;4.402;2022-09-03T03:57:19;20.80;97.80
41876;DHT22;27555;50.808;4.402;2022-09-03T03:59:46;20.70;98.60
41876;DHT22;27555;50.808;4.402;2022-09-03T04:02:12;20.50;99.30
41876;DHT22;27555;50.808;4.402;2022-09-03T04:04:41;20.00;99.90
41876;DHT22;27555;50.808;4.402;2022-09-03T04:07:07;19.90;99.90
41876;DHT22;27555;50.808;4.402;2022-09-03T04:09:33;19.90;99.90
41876;DHT22;27555;50.808;4.402;2022-09-03T04:11:59;20.00;99.90
41876;DHT22;27555;50.808;4.402;2022-09-03T04:14:25;20.00;99.90
41876;DHT22;27555;50.808;4.402;2022-09-03T04:16:52;20.00;99.90
41876;DHT22;27555;50.808;4.402;2022-09-03T04:19:18;20.10;99.90
41876;DHT22;27555;50.808;4.402;2022-09-03T04:21:44;20.10;99.90
41876;DHT22;27555;50.808;4.402;2022-09-03T04:24:10;20.10;99.90
41876;DHT22;27555;50.808;4.402;2022-09-03T04:26:36;20.00;99.90
41876;DHT22;27555;50.808;4.402;2022-09-03T04:29:05;20.00;99.90
41876;DHT22;27555;50.808;4.402;2022-09-03T04:31:32;20.00;99.90
41876;DHT22;27555;50.808;4.402;2022-09-03T04:33:58;20.10;99.90
41876;DHT22;27555;50.808;4.402;2022-09-03T04:36:25;20.10;99.90
41876;DHT22;27555;50.808;4.402;2022-09-03T04:38:53;20.10;99.90
41876;DHT22;27555;50.808;4.402;2022-09-03T04:41:24;20.00;99.90
41876;DHT22;27555;50.808;4.402;2022-09-03T04:43:54;20.00;99.90
41876;DHT22;27555;50.808;4.402;2022-09-03T04:46:21;19.90;99.90
41876;DHT22;27555;50.808;4.402;2022-09-03T04:48:49;19.60;99.90
41876;DHT22;27555;50.808;4.402;2022-09-03T04:51:17;19.80;99.90
41876;DHT22;27555;50.808;4.402;2022-09-03T04:53:44;19.90;99.90
41876;DHT22;27555;50.808;4.402;2022-09-03T04:56:22;19.40;99.90
41876;DHT22;27555;50.808;4.402;2022-09-03T04:58:52;19.10;99.90
41876;DHT22;27555;50.808;4.402;2022-09-03T05:01:22;19.20;99.90
41876;DHT22;27555;50.808;4.402;2022-09-03T05:03:48;19.20;99.90
41876;DHT22;27555;50.808;4.402;2022-09-03T05:06:16;19.20;99.90
41876;DHT22;27555;50.808;4.402;2022-09-03T05:08:47;19.30;99.90
41876;DHT22;27555;50.808;4.402;2022-09-03T05:11:13;19.20;99.90
41876;DHT22;27555;50.808;4.402;2022-09-03T05:13:40;19.30;99.90
41876;DHT22;27555;50.808;4.402;2022-09-03T05:16:08;19.60;99.90
41876;DHT22;27555;50.808;4.402;2022-09-03T05:18:35;19.70;99.90
41876;DHT22;27555;50.808;4.402;2022-09-03T05:21:04;19.90;99.90
41876;DHT22;27555;50.808;4.402;2022-09-03T05:23:30;19.90;99.90
41876;DHT22;27555;50.808;4.402;2022-09-03T05:25:59;19.90;99.90
41876;DHT22;27555;50.808;4.402;2022-09-03T05:28:26;19.90;99.90
41876;DHT22;27555;50.808;4.402;2022-09-03T05:31:03;19.90;99.90
41876;DHT22;27555;50.808;4.402;2022-09-03T05:33:38;19.90;99.90
41876;DHT22;27555;50.808;4.402;2022-09-03T05:36:06;19.80;99.90
41876;DHT22;27555;50.808;4.402;2022-09-03T05:38:32;19.90;99.90
41876;DHT22;27555;50.808;4.402;2022-09-03T05:41:00;19.90;99.90
41876;DHT22;27555;50.808;4.402;2022-09-03T05:43:28;20.00;99.90
41876;DHT22;27555;50.808;4.402;2022-09-03T05:46:02;20.00;99.90
41876;DHT22;27555;50.808;4.402;2022-09-03T05:48:29;19.90;99.90
41876;DHT22;27555;50.808;4.402;2022-09-03T05:51:07;20.00;99.90
41876;DHT22;27555;50.808;4.402;2022-09-03T05:53:36;20.10;99.90
41876;DHT22;27555;50.808;4.402;2022-09-03T05:56:06;20.10;99.90
41876;DHT22;27555;50.808;4.402;2022-09-03T05:58:33;20.20;99.90
41876;DHT22;27555;50.808;4.402;2022-09-03T06:01:08;20.20;99.90
41876;DHT22;27555;50.808;4.402;2022-09-03T06:03:33;20.20;99.90
41876;DHT22;27555;50.808;4.402;2022-09-03T06:05:59;20.10;99.90
41876;DHT22;27555;50.808;4.402;2022-09-03T06:08:25;20.10;99.90
41876;DHT22;27555;50.808;4.402;2022-09-03T06:10:57;20.10;99.90
41876;DHT22;27555;50.808;4.402;2022-09-03T06:13:23;20.10;99.90
41876;DHT22;27555;50.808;4.402;2022-09-03T06:15:48;20.10;99.90
41876;DHT22;27555;50.808;4.402;2022-09-03T06:18:14;20.10;99.90
41876;DHT22;27555;50.808;4.402;2022-09-03T06:20:39;20.20;99.90
41876;DHT22;27555;50.808;4.402;2022-09-03T06:23:05;20.10;99.90
41876;DHT22;27555;50.808;4.402;2022-09-03T06:25:30;20.10;99.90
41876;DHT22;27555;50.808;4.402;2022-09-03T06:27:56;20.20;99.90
41876;DHT22;27555;50.808;4.402;2022-09-03T06:30:22;20.20;99.90
41876;DHT22;27555;50.808;4.402;2022-09-03T06:32:49;20.20;99.90
41876;DHT22;27555;50.808;4.402;2022-09-03T06:35:15;20.30;99.90
41876;DHT22;27555;50.808;4.402;2022-09-03T06:37:41;20.10;99.90
41876;DHT22;27555;50.808;4.402;2022-09-03T06:40:08;20.10;99.90
41876;DHT22;27555;50.808;4.402;2022-09-03T06:42:40;20.10;99.90
41876;DHT22;27555;50.808;4.402;2022-09-03T06:45:10;20.30;99.90
41876;DHT22;27555;50.808;4.402;2022-09-03T06:47:35;20.50;99.90
41876;DHT22;27555;50.808;4.402;2022-09-03T06:50:01;20.70;99.90
41876;DHT22;27555;50.808;4.402;2022-09-03T06:52:27;20.70;99.90
41876;DHT22;27555;50.808;4.402;2022-09-03T06:54:53;20.80;99.90
41876;DHT22;27555;50.808;4.402;2022-09-03T06:57:19;20.80;99.90
41876;DHT22;27555;50.808;4.402;2022-09-03T06:59:44;20.90;99.90
41876;DHT22;27555;50.808;4.402;2022-09-03T07:02:10;20.90;99.90
41876;DHT22;27555;50.808;4.402;2022-09-03T07:04:36;21.00;99.90
41876;DHT22;27555;50.808;4.402;2022-09-03T07:07:02;21.10;99.90
41876;DHT22;27555;50.808;4.402;2022-09-03T07:09:27;21.10;99.90
41876;DHT22;27555;50.808;4.402;2022-09-03T07:11:54;21.10;99.90
41876;DHT22;27555;50.808;4.402;2022-09-03T07:14:20;21.10;99.90
41876;DHT22;27555;50.808;4.402;2022-09-03T07:16:47;21.20;99.90
41876;DHT22;27555;50.808;4.402;2022-09-03T07:19:14;21.20;99.90
41876;DHT22;27555;50.808;4.402;2022-09-03T07:21:40;21.20;99.90
41876;DHT22;27555;50.808;4.402;2022-09-03T07:24:07;21.30;99.90
41876;DHT22;27555;50.808;4.402;2022-09-03T07:26:38;21.30;99.90
41876;DHT22;27555;50.808;4.402;2022-09-03T07:29:05;21.40;99.90
41876;DHT22;27555;50.808;4.402;2022-09-03T07:31:34;21.40;99.90
41876;DHT22;27555;50.808;4.402;2022-09-03T07:34:04;21.50;99.90
41876;DHT22;27555;50.808;4.402;2022-09-03T07:36:34;21.50;99.90
41876;DHT22;27555;50.808;4.402;2022-09-03T07:39:03;21.60;99.90
41876;DHT22;27555;50.808;4.402;2022-09-03T07:41:30;21.60;99.90
41876;DHT22;27555;50.808;4.402;2022-09-03T07:43:59;21.70;99.90
41876;DHT22;27555;50.808;4.402;2022-09-03T07:46:32;21.70;99.90
41876;DHT22;27555;50.808;4.402;2022-09-03T07:48:59;21.60;99.90
41876;DHT22;27555;50.808;4.402;2022-09-03T07:51:32;21.60;99.90
41876;DHT22;27555;50.808;4.402;2022-09-03T07:54:01;21.70;99.90
41876;DHT22;27555;50.808;4.402;2022-09-03T07:56:28;21.90;99.90
41876;DHT22;27555;50.808;4.402;2022-09-03T07:58:57;22.00;99.90
41876;DHT22;27555;50.808;4.402;2022-09-03T08:01:24;22.20;99.90
41876;DHT22;27555;50.808;4.402;2022-09-03T08:03:52;22.40;99.90
41876;DHT22;27555;50.808;4.402;2022-09-03T08:06:21;22.60;99.90
41876;DHT22;27555;50.808;4.402;2022-09-03T08:08:47;22.80;99.90
41876;DHT22;27555;50.808;4.402;2022-09-03T08:11:15;23.00;99.90
41876;DHT22;27555;50.808;4.402;2022-09-03T08:13:53;23.10;99.90
41876;DHT22;27555;50.808;4.402;2022-09-03T08:16:19;23.30;99.90
41876;DHT22;27555;50.808;4.402;2022-09-03T08:18:45;23.50;99.90
41876;DHT22;27555;50.808;4.402;2022-09-03T08:21:17;23.70;99.80
41876;DHT22;27555;50.808;4.402;2022-09-03T08:23:48;23.80;98.90
41876;DHT22;27555;50.808;4.402;2022-09-03T08:26:17;23.60;99.20
41876;DHT22;27555;50.808;4.402;2022-09-03T08:28:44;23.70;99.50
41876;DHT22;27555;50.808;4.402;2022-09-03T08:33:47;24.00;98.10
41876;DHT22;27555;50.808;4.402;2022-09-03T08:36:17;23.80;98.40
41876;DHT22;27555;50.808;4.402;2022-09-03T08:38:45;23.80;98.30
41876;DHT22;27555;50.808;4.402;2022-09-03T08:41:14;23.80;98.60
41876;DHT22;27555;50.808;4.402;2022-09-03T08:46:49;24.00;98.30
41876;DHT22;27555;50.808;4.402;2022-09-03T08:49:25;24.10;98.30
41876;DHT22;27555;50.808;4.402;2022-09-03T08:51:54;24.10;98.20
41876;DHT22;27555;50.808;4.402;2022-09-03T08:54:24;24.30;98.20
41876;DHT22;27555;50.808;4.402;2022-09-03T08:56:51;24.20;98.10
41876;DHT22;27555;50.808;4.402;2022-09-03T08:59:17;24.30;98.20
41876;DHT22;27555;50.808;4.402;2022-09-03T09:01:56;24.50;98.00
41876;DHT22;27555;50.808;4.402;2022-09-03T09:10:11;24.90;97.80
41876;DHT22;27555;50.808;4.402;2022-09-03T09:20:53;25.00;96.90
41876;DHT22;27555;50.808;4.402;2022-09-03T09:23:39;25.10;97.20
41876;DHT22;27555;50.808;4.402;2022-09-03T09:26:12;25.30;97.00
41876;DHT22;27555;50.808;4.402;2022-09-03T09:28:38;25.60;96.40
41876;DHT22;27555;50.808;4.402;2022-09-03T09:31:06;25.50;96.30
41876;DHT22;27555;50.808;4.402;2022-09-03T09:33:33;25.20;96.70
41876;DHT22;27555;50.808;4.402;2022-09-03T09:36:06;25.00;96.80
41876;DHT22;27555;50.808;4.402;2022-09-03T09:38:35;24.90;97.10
41876;DHT22;27555;50.808;4.402;2022-09-03T09:41:27;24.70;97.30
41876;DHT22;27555;50.808;4.402;2022-09-03T09:44:00;24.90;97.30
41876;DHT22;27555;50.808;4.402;2022-09-03T09:46:35;24.90;97.10
41876;DHT22;27555;50.808;4.402;2022-09-03T09:49:17;24.90;97.20
41876;DHT22;27555;50.808;4.402;2022-09-03T09:51:46;24.80;96.80
41876;DHT22;27555;50.808;4.402;2022-09-03T09:54:17;24.80;97.40
41876;DHT22;27555;50.808;4.402;2022-09-03T09:57:02;24.70;97.20
41876;DHT22;27555;50.808;4.402;2022-09-03T09:59:29;24.70;97.30
41876;DHT22;27555;50.808;4.402;2022-09-03T10:02:08;24.50;97.60
41876;DHT22;27555;50.808;4.402;2022-09-03T10:04:34;24.50;97.50
41876;DHT22;27555;50.808;4.402;2022-09-03T10:07:21;24.60;97.20
41876;DHT22;27555;50.808;4.402;2022-09-03T10:09:59;24.70;97.40
41876;DHT22;27555;50.808;4.402;2022-09-03T10:12:33;24.70;97.20
41876;DHT22;27555;50.808;4.402;2022-09-03T10:15:27;24.80;97.10
41876;DHT22;27555;50.808;4.402;2022-09-03T10:18:15;24.90;96.70
41876;DHT22;27555;50.808;4.402;2022-09-03T10:23:22;25.30;96.60
41876;DHT22;27555;50.808;4.402;2022-09-03T10:26:11;25.60;96.00
41876;DHT22;27555;50.808;4.402;2022-09-03T10:28:40;25.90;95.50
41876;DHT22;27555;50.808;4.402;2022-09-03T10:34:08;26.30;95.40
41876;DHT22;27555;50.808;4.402;2022-09-03T10:45:11;28.30;93.00
41876;DHT22;27555;50.808;4.402;2022-09-03T10:48:01;28.50;92.90
41876;DHT22;27555;50.808;4.402;2022-09-03T10:50:47;29.00;92.40
41876;DHT22;27555;50.808;4.402;2022-09-03T10:56:06;29.90;91.20
41876;DHT22;27555;50.808;4.402;2022-09-03T11:06:51;31.40;86.90
41876;DHT22;27555;50.808;4.402;2022-09-03T11:09:23;31.40;86.30
41876;DHT22;27555;50.808;4.402;2022-09-03T11:11:57;32.80;82.60
41876;DHT22;27555;50.808;4.402;2022-09-03T11:14:42;33.40;81.90
41876;DHT22;27555;50.808;4.402;2022-09-03T11:17:19;34.00;80.10
41876;DHT22;27555;50.808;4.402;2022-09-03T11:20:06;33.50;79.70
41876;DHT22;27555;50.808;4.402;2022-09-03T11:22:35;32.10;80.90
41876;DHT22;27555;50.808;4.402;2022-09-03T11:25:04;31.10;83.20
41876;DHT22;27555;50.808;4.402;2022-09-03T11:30:08;30.10;84.60
41876;DHT22;27555;50.808;4.402;2022-09-03T11:32:45;29.40;84.70
41876;DHT22;27555;50.808;4.402;2022-09-03T11:35:15;28.70;85.70
41876;DHT22;27555;50.808;4.402;2022-09-03T11:38:33;28.40;86.50
41876;DHT22;27555;50.808;4.402;2022-09-03T11:46:26;27.90;87.60
41876;DHT22;27555;50.808;4.402;2022-09-03T11:49:12;27.60;87.70
41876;DHT22;27555;50.808;4.402;2022-09-03T11:51:39;27.60;88.40
41876;DHT22;27555;50.808;4.402;2022-09-03T11:56:47;28.50;87.70
41876;DHT22;27555;50.808;4.402;2022-09-03T11:59:23;28.50;87.40
41876;DHT22;27555;50.808;4.402;2022-09-03T12:02:01;28.90;87.30
41876;DHT22;27555;50.808;4.402;2022-09-03T12:10:25;30.10;84.10
41876;DHT22;27555;50.808;4.402;2022-09-03T12:15:58;29.90;83.60
41876;DHT22;27555;50.808;4.402;2022-09-03T12:18:32;30.30;82.90
41876;DHT22;27555;50.808;4.402;2022-09-03T12:21:02;30.80;82.30
41876;DHT22;27555;50.808;4.402;2022-09-03T12:23:32;31.10;81.90
41876;DHT22;27555;50.808;4.402;2022-09-03T12:26:02;30.80;82.10
41876;DHT22;27555;50.808;4.402;2022-09-03T12:28:30;30.10;82.80
41876;DHT22;27555;50.808;4.402;2022-09-03T12:31:13;29.80;83.20
41876;DHT22;27555;50.808;4.402;2022-09-03T12:33:53;29.50;83.50
41876;DHT22;27555;50.808;4.402;2022-09-03T12:36:21;29.70;83.30
41876;DHT22;27555;50.808;4.402;2022-09-03T12:38:47;29.80;82.90
41876;DHT22;27555;50.808;4.402;2022-09-03T12:41:20;29.90;83.00
41876;DHT22;27555;50.808;4.402;2022-09-03T12:43:55;29.80;83.10
41876;DHT22;27555;50.808;4.402;2022-09-03T12:46:25;29.50;83.20
41876;DHT22;27555;50.808;4.402;2022-09-03T12:48:53;29.20;83.50
41876;DHT22;27555;50.808;4.402;2022-09-03T12:51:19;28.90;84.00
41876;DHT22;27555;50.808;4.402;2022-09-03T12:53:46;28.70;84.30
41876;DHT22;27555;50.808;4.402;2022-09-03T12:56:12;28.80;84.60
41876;DHT22;27555;50.808;4.402;2022-09-03T12:58:55;28.70;84.80
41876;DHT22;27555;50.808;4.402;2022-09-03T13:01:33;28.70;84.80
41876;DHT22;27555;50.808;4.402;2022-09-03T13:04:12;28.70;85.00
41876;DHT22;27555;50.808;4.402;2022-09-03T13:09:22;29.10;84.10
41876;DHT22;27555;50.808;4.402;2022-09-03T13:11:48;29.40;83.40
41876;DHT22;27555;50.808;4.402;2022-09-03T13:14:16;29.40;82.10
41876;DHT22;27555;50.808;4.402;2022-09-03T13:30:02;28.80;82.00
41876;DHT22;27555;50.808;4.402;2022-09-03T13:32:37;28.70;82.00
41876;DHT22;27555;50.808;4.402;2022-09-03T13:35:16;28.60;81.90
41876;DHT22;27555;50.808;4.402;2022-09-03T13:38:26;28.80;81.40
41876;DHT22;27555;50.808;4.402;2022-09-03T13:41:14;28.90;81.70
41876;DHT22;27555;50.808;4.402;2022-09-03T13:43:44;29.00;81.10
41876;DHT22;27555;50.808;4.402;2022-09-03T13:46:23;29.10;80.80
41876;DHT22;27555;50.808;4.402;2022-09-03T13:49:07;29.10;80.50
41876;DHT22;27555;50.808;4.402;2022-09-03T13:51:58;29.00;80.70
41876;DHT22;27555;50.808;4.402;2022-09-03T13:54:37;28.70;81.20
41876;DHT22;27555;50.808;4.402;2022-09-03T13:57:19;28.60;81.90
41876;DHT22;27555;50.808;4.402;2022-09-03T14:05:40;28.30;82.30
41876;DHT22;27555;50.808;4.402;2022-09-03T14:08:39;28.30;81.30
41876;DHT22;27555;50.808;4.402;2022-09-03T14:14:40;28.20;82.30
41876;DHT22;27555;50.808;4.402;2022-09-03T14:17:29;28.10;82.70
41876;DHT22;27555;50.808;4.402;2022-09-03T14:20:12;28.30;81.80
41876;DHT22;27555;50.808;4.402;2022-09-03T14:22:56;28.40;81.80
41876;DHT22;27555;50.808;4.402;2022-09-03T14:25:25;28.20;82.40
41876;DHT22;27555;50.808;4.402;2022-09-03T14:27:52;28.40;82.20
41876;DHT22;27555;50.808;4.402;2022-09-03T14:30:29;28.40;82.50
41876;DHT22;27555;50.808;4.402;2022-09-03T14:33:05;28.40;82.70
41876;DHT22;27555;50.808;4.402;2022-09-03T14:40:57;28.60;81.50
41876;DHT22;27555;50.808;4.402;2022-09-03T14:44:04;28.60;82.10
41876;DHT22;27555;50.808;4.402;2022-09-03T15:07:58;28.60;81.30
41876;DHT22;27555;50.808;4.402;2022-09-03T15:10:41;28.60;80.80
41876;DHT22;27555;50.808;4.402;2022-09-03T15:13:18;28.50;80.60
41876;DHT22;27555;50.808;4.402;2022-09-03T15:16:05;28.10;81.30
41876;DHT22;27555;50.808;4.402;2022-09-03T15:19:55;28.00;82.00
41876;DHT22;27555;50.808;4.402;2022-09-03T15:21:55;28.00;83.10
41876;DHT22;27555;50.808;4.402;2022-09-03T15:30:14;27.50;86.10
41876;DHT22;27555;50.808;4.402;2022-09-03T15:35:44;27.50;86.80
41876;DHT22;27555;50.808;4.402;2022-09-03T15:41:06;27.80;85.20
41876;DHT22;27555;50.808;4.402;2022-09-03T15:43:33;27.80;85.30
41876;DHT22;27555;50.808;4.402;2022-09-03T15:46:10;27.40;86.60
41876;DHT22;27555;50.808;4.402;2022-09-03T15:48:57;27.00;89.60
41876;DHT22;27555;50.808;4.402;2022-09-03T15:57:01;26.40;91.40
41876;DHT22;27555;50.808;4.402;2022-09-03T16:00:05;26.50;91.60
41876;DHT22;27555;50.808;4.402;2022-09-03T16:05:35;26.10;92.80
41876;DHT22;27555;50.808;4.402;2022-09-03T16:08:18;26.00;93.20
41876;DHT22;27555;50.808;4.402;2022-09-03T16:19:11;25.90;93.40
41876;DHT22;27555;50.808;4.402;2022-09-03T16:21:50;26.10;92.80
41876;DHT22;27555;50.808;4.402;2022-09-03T16:24:46;26.20;92.80
41876;DHT22;27555;50.808;4.402;2022-09-03T16:27:26;26.10;92.20
41876;DHT22;27555;50.808;4.402;2022-09-03T16:38:08;26.60;91.50
41876;DHT22;27555;50.808;4.402;2022-09-03T16:48:57;26.30;92.20
41876;DHT22;27555;50.808;4.402;2022-09-03T16:55:18;26.30;92.50
41876;DHT22;27555;50.808;4.402;2022-09-03T17:00:47;26.40;91.70
41876;DHT22;27555;50.808;4.402;2022-09-03T17:11:37;26.10;92.30
41876;DHT22;27555;50.808;4.402;2022-09-03T17:17:11;26.20;92.60
41876;DHT22;27555;50.808;4.402;2022-09-03T17:22:44;26.10;93.00
41876;DHT22;27555;50.808;4.402;2022-09-03T17:35:45;25.70;94.20
41876;DHT22;27555;50.808;4.402;2022-09-03T17:38:29;25.70;94.90
41876;DHT22;27555;50.808;4.402;2022-09-03T17:49:59;25.40;95.50
41876;DHT22;27555;50.808;4.402;2022-09-03T17:55:20;25.10;95.80
41876;DHT22;27555;50.808;4.402;2022-09-03T17:57:58;25.10;96.00
41876;DHT22;27555;50.808;4.402;2022-09-03T18:01:19;25.00;96.10
41876;DHT22;27555;50.808;4.402;2022-09-03T18:06:29;25.00;96.40
41876;DHT22;27555;50.808;4.402;2022-09-03T18:09:04;24.90;96.40
41876;DHT22;27555;50.808;4.402;2022-09-03T18:11:38;24.90;96.70
41876;DHT22;27555;50.808;4.402;2022-09-03T18:17:12;24.90;97.30
41876;DHT22;27555;50.808;4.402;2022-09-03T18:19:49;24.80;97.20
41876;DHT22;27555;50.808;4.402;2022-09-03T18:23:06;24.70;97.10
41876;DHT22;27555;50.808;4.402;2022-09-03T18:25:59;24.50;96.90
41876;DHT22;27555;50.808;4.402;2022-09-03T18:28:46;24.30;96.60
41876;DHT22;27555;50.808;4.402;2022-09-03T18:31:31;24.20;96.60
41876;DHT22;27555;50.808;4.402;2022-09-03T18:34:17;24.00;96.50
41876;DHT22;27555;50.808;4.402;2022-09-03T18:37:02;24.00;96.40
41876;DHT22;27555;50.808;4.402;2022-09-03T18:39:46;23.90;96.40
41876;DHT22;27555;50.808;4.402;2022-09-03T18:43:01;23.70;96.60
41876;DHT22;27555;50.808;4.402;2022-09-03T18:48:45;23.60;96.50
41876;DHT22;27555;50.808;4.402;2022-09-03T18:58:01;23.60;96.40
41876;DHT22;27555;50.808;4.402;2022-09-03T19:01:07;23.50;96.60
41876;DHT22;27555;50.808;4.402;2022-09-03T19:07:04;23.60;96.70
41876;DHT22;27555;50.808;4.402;2022-09-03T19:12:55;23.60;96.70
41876;DHT22;27555;50.808;4.402;2022-09-03T19:16:25;23.60;96.70
41876;DHT22;27555;50.808;4.402;2022-09-03T19:22:33;23.60;96.90
41876;DHT22;27555;50.808;4.402;2022-09-03T19:25:17;23.50;97.00
41876;DHT22;27555;50.808;4.402;2022-09-03T19:31:44;23.60;97.10
41876;DHT22;27555;50.808;4.402;2022-09-03T19:43:43;23.20;98.00
41876;DHT22;27555;50.808;4.402;2022-09-03T19:52:57;23.10;98.30
41876;DHT22;27555;50.808;4.402;2022-09-03T19:55:47;23.00;98.60
41876;DHT22;27555;50.808;4.402;2022-09-03T19:58:36;23.00;99.00
41876;DHT22;27555;50.808;4.402;2022-09-03T20:01:22;22.90;99.10
41876;DHT22;27555;50.808;4.402;2022-09-03T20:04:14;22.90;99.30
41876;DHT22;27555;50.808;4.402;2022-09-03T20:07:00;22.90;99.40
41876;DHT22;27555;50.808;4.402;2022-09-03T20:09:45;22.80;99.70
41876;DHT22;27555;50.808;4.402;2022-09-03T20:12:34;22.70;99.90
41876;DHT22;27555;50.808;4.402;2022-09-03T20:15:05;22.70;99.90
41876;DHT22;27555;50.808;4.402;2022-09-03T20:20:41;22.60;99.90
41876;DHT22;27555;50.808;4.402;2022-09-03T20:23:26;22.60;99.90
41876;DHT22;27555;50.808;4.402;2022-09-03T20:26:19;22.50;99.90
41876;DHT22;27555;50.808;4.402;2022-09-03T20:32:10;22.40;99.90
41876;DHT22;27555;50.808;4.402;2022-09-03T20:37:40;22.30;99.90
41876;DHT22;27555;50.808;4.402;2022-09-03T20:51:22;22.10;99.90
41876;DHT22;27555;50.808;4.402;2022-09-03T21:10:56;21.80;99.90
41876;DHT22;27555;50.808;4.402;2022-09-03T21:16:28;21.70;99.90
41876;DHT22;27555;50.808;4.402;2022-09-03T21:19:09;21.60;99.90
41876;DHT22;27555;50.808;4.402;2022-09-03T21:24:32;21.60;99.90
41876;DHT22;27555;50.808;4.402;2022-09-03T21:27:23;21.60;99.90
41876;DHT22;27555;50.808;4.402;2022-09-03T21:30:05;21.50;99.90
41876;DHT22;27555;50.808;4.402;2022-09-03T21:32:54;21.50;99.90
41876;DHT22;27555;50.808;4.402;2022-09-03T21:35:28;21.50;99.90
41876;DHT22;27555;50.808;4.402;2022-09-03T21:38:16;21.40;99.90
41876;DHT22;27555;50.808;4.402;2022-09-03T21:43:55;21.30;99.90
41876;DHT22;27555;50.808;4.402;2022-09-03T21:46:25;21.30;99.90
41876;DHT22;27555;50.808;4.402;2022-09-03T21:48:58;21.30;99.90
41876;DHT22;27555;50.808;4.402;2022-09-03T21:51:46;21.30;99.90
41876;DHT22;27555;50.808;4.402;2022-09-03T21:54:30;21.20;99.90
41876;DHT22;27555;50.808;4.402;2022-09-03T21:57:27;21.20;99.90